Latest Weather Observations for Moss Vale

IDN60801

Issued at 11:43 pm EST Friday 16 April 2021 (issued every 10 minutes, with the page automatically refreshed every 10 minutes)

About weather observations | Map of weather stations | Latest weather observations for NSW | Other Formats
Station Details ID: 068239 Name: MOSS VALE AWS Lat: -34.53 Lon: 150.42 Height: 678.4 m
Data from the previous 72 hours. | See also: Recent months at Moss Vale
Date/Time
EST
Temp
°C
App
Temp
°C
Dew
Point
°C
Rel
Hum
%
Delta-T
°C
Wind Press
QNH
hPa
Press
MSL
hPa
Rain since
9am
mm
Dir  Spd
km/h
Gust
km/h
Spd
kts
Gust
kts
16/11:30pm 9.4 8.8 7.2 86 1.1 CALM 0 0 0 0 1024.6 1023.3 0.0
16/11:00pm 9.3 7.5 7.3 87 1.0 SSE 6 6 3 3 1024.7 1023.4 0.0
16/10:30pm 9.3 7.9 7.4 88 0.9 SSE 4 6 2 3 1025.0 1023.8 0.0
16/10:00pm 9.6 8.2 7.4 86 1.1 E 4 7 2 4 1025.3 1024.1 0.0
16/09:30pm 9.5 7.5 7.3 86 1.1 ESE 7 11 4 6 1025.0 1023.8 0.0
16/09:00pm 9.8 9.2 7.2 84 1.3 CALM 0 0 0 0 1024.9 1023.7 0.0
16/08:30pm 9.7 7.4 7.3 85 1.2 ESE 9 11 5 6 1024.7 1023.4 0.0
16/08:00pm 9.7 7.4 7.3 85 1.2 SE 9 11 5 6 1024.6 1023.3 0.0
16/07:30pm 9.8 7.4 7.2 84 1.3 SE 9 11 5 6 1024.5 1023.2 0.0
16/07:00pm 9.7 6.9 7.1 84 1.3 ESE 11 15 6 8 1024.4 1023.1 0.0
16/06:30pm 9.9 7.5 7.2 83 1.3 ESE 9 13 5 7 1024.0 1022.8 0.0
16/06:00pm 10.1 7.0 7.2 82 1.4 ESE 13 19 7 10 1023.4 1022.1 0.0
16/05:30pm 10.5 7.0 7.4 81 1.5 ESE 15 22 8 12 1023.3 1022.0 0.0
16/05:00pm 11.4 7.3 7.7 78 1.9 ESE 19 24 10 13 1022.8 1021.5 0.0
16/04:30pm 12.0 7.9 7.9 76 2.1 E 19 28 10 15 1022.4 1021.2 0.0
16/04:00pm 12.8 8.7 7.7 71 2.6 E 19 26 10 14 1022.1 1020.8 0.0
16/03:30pm 13.6 9.3 8.0 69 2.9 SE 20 28 11 15 1021.8 1020.5 0.0
16/03:00pm 13.6 9.9 7.8 68 3.0 SE 17 24 9 13 1021.7 1020.4 0.0
16/02:30pm 14.4 11.6 8.4 67 3.1 SE 13 17 7 9 1021.6 1020.3 0.0
16/02:00pm 15.9 12.8 8.9 63 3.7 SSE 15 20 8 11 1021.4 1020.1 0.0
16/01:30pm 14.6 11.4 6.7 59 4.0 S 13 19 7 10 1021.4 1020.1 0.0
16/01:00pm 16.0 14.1 9.0 63 3.7 SE 9 17 5 9 1021.6 1020.3 0.0
16/12:30pm 15.7 13.2 6.7 55 4.6 NNE 9 15 5 8 1021.9 1020.6 0.0
16/12:00pm 15.5 14.0 9.2 66 3.3 S 7 11 4 6 1022.3 1021.1 0.0
16/11:30am 15.2 12.3 8.2 63 3.7 SE 13 17 7 9 1022.4 1021.2 0.0
16/11:00am 13.0 8.9 7.7 70 2.7 S 19 28 10 15 1022.6 1021.3 0.0
16/10:30am 13.5 9.7 9.2 75 2.3 S 19 26 10 14 1022.8 1021.5 0.0
16/10:00am 14.0 9.7 7.1 63 3.5 SSW 19 24 10 13 1022.7 1021.4 0.0
16/09:30am 13.3 9.2 6.2 62 3.5 S 17 22 9 12 1022.6 1021.3 0.0
16/09:00am 11.5 9.2 5.6 67 2.8 SW 7 13 4 7 1022.4 1021.2 0.0
16/08:30am 10.8 7.3 5.6 70 2.5 WSW 13 15 7 8 1022.1 1020.8 0.0
16/08:00am 10.3 7.2 5.5 72 2.3 WSW 11 13 6 7 1021.6 1020.3 0.0
16/07:30am 8.9 6.0 4.7 75 1.9 W 9 11 5 6 1021.2 1019.9 0.0
16/07:00am 8.1 6.0 3.8 74 1.9 W 4 7 2 4 1020.8 1019.5 0.0
16/06:30am 7.6 5.5 4.0 78 1.6 W 4 9 2 5 1020.3 1019.0 0.0
16/06:00am 7.9 5.3 4.1 77 1.7 W 7 15 4 8 1019.9 1018.6 0.0
16/05:30am 7.9 4.1 4.1 77 1.7 WSW 13 19 7 10 1019.2 1017.9 0.0
16/05:00am 8.1 4.3 4.1 76 1.8 WSW 13 19 7 10 1019.0 1017.7 0.0
16/04:30am 8.0 4.2 4.0 76 1.8 SW 13 15 7 8 1018.7 1017.4 0.0
16/04:00am 8.7 5.3 4.1 73 2.1 WSW 11 15 6 8 1018.6 1017.3 0.0
16/03:30am 9.0 6.6 4.2 72 2.2 SW 6 11 3 6 1018.3 1016.9 0.0
16/03:00am 9.1 6.5 4.3 72 2.2 WSW 7 11 4 6 1017.9 1016.5 0.0
16/02:30am 9.2 6.3 4.4 72 2.2 SW 9 11 5 6 1017.9 1016.5 0.0
16/02:00am 9.5 5.8 4.3 70 2.4 SW 13 17 7 9 1018.0 1016.6 0.0
16/01:30am 10.2 5.8 4.6 68 2.6 WSW 17 24 9 13 1018.1 1016.7 0.0
16/01:00am 10.2 6.5 4.6 68 2.6 WSW 13 20 7 11 1018.1 1016.7 0.0
16/12:30am 10.6 6.2 4.9 68 2.7 W 17 24 9 13 1018.0 1016.6 0.0
16/12:00am 11.0 5.3 4.9 66 2.9 W 24 30 13 16 1017.4 1016.1 0.0
 
Date/Time
EST
Temp
°C
App
Temp
°C
Dew
Point
°C
Rel
Hum
%
Delta-T
°C
Wind Press
QNH
hPa
Press
MSL
hPa
Rain since
9am
mm
Dir  Spd
km/h
Gust
km/h
Spd
kts
Gust
kts
15/11:30pm 11.2 4.7 4.9 65 3.0 W 28 39 15 21 1017.2 1015.9 0.0
15/11:00pm 11.6 4.4 5.0 64 3.1 W 32 44 17 24 1017.0 1015.6 0.0
15/10:30pm 11.7 4.9 5.3 65 3.1 W 30 41 16 22 1017.1 1015.7 0.0
15/10:00pm 12.0 5.2 5.2 63 3.3 W 30 43 16 23 1017.0 1015.6 0.0
15/09:30pm 12.0 4.8 5.0 62 3.3 W 32 46 17 25 1017.0 1015.6 0.0
15/09:00pm 12.4 6.0 5.1 61 3.5 W 28 41 15 22 1016.7 1015.3 0.0
15/08:30pm 12.6 6.2 5.1 60 3.6 W 28 39 15 21 1016.6 1015.2 0.0
15/08:00pm 12.9 6.8 4.8 58 3.9 W 26 33 14 18 1016.3 1014.9 0.0
15/07:30pm 13.1 7.0 4.8 57 4.0 W 26 35 14 19 1016.3 1014.9 0.0
15/07:00pm 13.5 7.7 4.6 55 4.3 W 24 32 13 17 1015.8 1014.4 0.0
15/06:30pm 13.3 7.8 4.2 54 4.3 W 22 35 12 19 1015.8 1014.4 0.0
15/06:00pm 13.7 7.8 4.0 52 4.6 W 24 35 13 19 1015.6 1014.2 0.0
15/05:30pm 14.3 9.1 5.7 56 4.2 W 22 32 12 17 1015.2 1013.8 0.0
15/05:00pm 15.8 10.7 6.0 52 4.9 WNW 22 32 12 17 1014.8 1013.4 0.0
15/04:30pm 17.0 11.4 5.3 46 5.8 W 24 33 13 18 1014.2 1012.8 0.0
15/04:00pm 17.6 11.7 5.9 46 5.9 W 26 39 14 21 1014.2 1012.8 0.0
15/03:30pm 17.8 11.4 5.4 44 6.2 WNW 28 39 15 21 1014.2 1012.8 0.0
15/03:00pm 17.3 11.8 5.9 47 5.8 W 24 35 13 19 1014.3 1012.9 0.0
15/02:30pm 17.5 13.0 7.0 50 5.4 WNW 20 30 11 16 1014.4 1013.0 0.0
15/02:00pm 17.5 12.6 6.7 49 5.5 W 22 33 12 18 1014.4 1013.0 0.0
15/01:30pm 17.6 11.1 4.9 43 6.3 W 28 41 15 22 1014.5 1013.1 0.0
15/01:00pm 18.2 11.7 6.4 46 6.1 W 30 43 16 23 1014.6 1013.3 0.0
15/12:30pm 17.9 11.3 6.1 46 6.0 W 30 41 16 22 1015.0 1013.6 0.0
15/12:00pm 18.1 12.2 6.0 45 6.2 WSW 26 39 14 21 1015.5 1014.1 0.0
15/11:30am 17.4 11.8 5.4 45 6.0 W 24 39 13 21 1016.1 1014.8 0.0
15/11:00am 16.9 10.2 5.8 48 5.6 WSW 30 37 16 20 1016.1 1014.8 0.0
15/10:53am 16.7 10.2 6.5 51 5.2 WSW 30 48 16 26 1016.3 1014.9 0.0
15/10:30am 16.3 8.9 5.0 47 5.6 W 33 48 18 26 1016.4 1015.0 0.0
15/10:00am 15.7 8.7 6.2 53 4.8 WSW 32 46 17 25 1016.6 1015.2 0.0
15/09:34am 14.7 6.8 4.4 50 5.0 W 35 54 19 29 1016.5 1015.1 0.0
15/09:30am 14.8 7.5 5.6 54 4.5 W 33 50 18 27 1016.6 1015.2 0.0
15/09:19am 14.5 7.7 5.0 53 4.6 W 30 48 16 26 1016.6 1015.2 0.0
15/09:00am 13.8 7.8 5.4 57 4.1 W 26 35 14 19 1016.8 1015.4 0.0
15/08:30am 12.8 8.3 6.2 64 3.3 W 19 24 10 13 1017.0 1015.6 0.0
15/08:00am 10.7 9.3 5.7 71 2.4 W 2 7 1 4 1017.0 1015.6 0.0
15/07:30am 9.0 8.2 6.3 83 1.3 CALM 0 0 0 0 1016.8 1015.4 0.0
15/07:00am 6.4 3.4 4.1 85 1.0 NW 9 13 5 7 1016.6 1015.2 0.0
15/06:30am 6.1 3.5 3.4 83 1.2 W 6 9 3 5 1016.4 1015.0 0.0
15/06:00am 7.0 4.5 3.6 79 1.5 W 6 6 3 3 1016.4 1015.0 0.0
15/05:30am 8.0 5.0 4.2 77 1.7 W 9 11 5 6 1016.3 1014.9 0.0
15/05:00am 8.3 5.3 4.3 76 1.8 W 9 11 5 6 1016.0 1014.7 0.0
15/04:30am 8.1 4.4 4.3 77 1.7 W 13 15 7 8 1015.8 1014.4 0.0
15/04:00am 9.2 5.5 4.6 73 2.1 WSW 13 15 7 8 1015.8 1014.4 0.0
15/03:30am 9.8 6.2 4.8 71 2.3 SW 13 17 7 9 1015.6 1014.2 0.0
15/03:00am 10.0 6.4 5.0 71 2.3 SW 13 17 7 9 1015.7 1014.3 0.0
15/02:30am 9.3 5.6 4.3 71 2.3 SSW 13 17 7 9 1015.9 1014.6 0.0
15/02:00am 9.5 5.9 5.1 74 2.1 SSW 13 15 7 8 1015.8 1014.4 0.0
15/01:30am 10.6 6.7 5.2 69 2.6 SW 15 20 8 11 1015.8 1014.4 0.0
15/01:00am 11.6 6.4 5.3 65 3.0 W 22 28 12 15 1015.5 1014.1 0.0
15/12:30am 11.9 6.9 4.6 61 3.5 WSW 20 26 11 14 1015.6 1014.2 0.0
15/12:00am 12.2 6.3 3.7 56 3.9 WNW 24 35 13 19 1015.2 1013.8 0.0
 
Date/Time
EST
Temp
°C
App
Temp
°C
Dew
Point
°C
Rel
Hum
%
Delta-T
°C
Wind Press
QNH
hPa
Press
MSL
hPa
Rain since
9am
mm
Dir  Spd
km/h
Gust
km/h
Spd
kts
Gust
kts
14/11:30pm 12.5 7.1 2.7 51 4.5 W 20 33 11 18 1015.5 1014.1 0.0
14/11:00pm 12.9 7.5 2.2 48 4.8 W 20 28 11 15 1015.9 1014.6 0.0
14/10:30pm 13.6 7.8 2.5 47 5.1 W 22 32 12 17 1016.4 1015.0 0.0
14/10:00pm 13.9 8.4 1.9 44 5.4 W 20 32 11 17 1016.3 1014.9 0.0
14/09:30pm 14.5 8.3 2.1 43 5.7 W 24 37 13 20 1015.9 1014.6 0.0
14/09:00pm 14.2 8.1 2.5 45 5.4 W 24 33 13 18 1016.0 1014.7 0.0
14/08:30pm 13.6 9.2 2.5 47 5.1 W 15 22 8 12 1016.1 1014.8 0.0
14/08:00pm 13.6 9.5 2.5 47 5.1 WNW 13 17 7 9 1016.1 1014.8 0.0
14/07:30pm 14.3 9.9 2.5 45 5.4 W 15 20 8 11 1015.9 1014.6 0.0
14/07:00pm 14.6 9.7 2.2 43 5.7 WNW 17 24 9 13 1015.8 1014.4 0.0
14/06:30pm 15.2 10.4 2.4 42 5.9 W 17 24 9 13 1015.6 1014.2 0.0
14/06:00pm 15.7 11.1 1.4 38 6.5 WNW 15 20 8 11 1015.2 1013.8 0.0
14/05:30pm 16.8 11.2 0.9 34 7.2 WNW 20 30 11 16 1014.6 1013.3 0.0
14/05:00pm 17.8 12.3 1.7 34 7.5 WNW 20 30 11 16 1014.4 1013.0 0.0
14/04:30pm 17.7 11.7 3.2 38 7.0 W 24 35 13 19 1014.1 1012.7 0.0
14/04:00pm 18.4 10.2 0.5 30 8.2 W 33 52 18 28 1014.0 1012.6 0.0
14/03:43pm 19.1 11.6 1.1 30 8.4 W 30 52 16 28 1013.8 1012.4 0.0
14/03:30pm 19.9 12.6 2.7 32 8.3 WNW 30 46 16 25 1013.8 1012.4 0.0
14/03:01pm 20.0 12.3 3.3 33 8.2 W 33 52 18 28 1013.8 1012.4 0.0
14/03:00pm 19.8 11.7 3.5 34 8.0 W 35 52 19 28 1013.8 1012.4 0.0
14/02:30pm 20.4 11.7 2.3 30 8.7 W 37 59 20 32 1013.9 1012.5 0.0
14/02:03pm 20.8 13.0 3.1 31 8.7 W 33 52 18 28 1013.7 1012.3 0.0
14/02:00pm 20.5 12.7 2.8 31 8.6 W 33 46 18 25 1013.7 1012.3 0.0
14/01:30pm 19.6 11.1 1.1 29 8.6 W 35 52 19 28 1013.7 1012.3 0.0
14/01:01pm 19.3 11.2 1.3 30 8.4 W 33 52 18 28 1014.0 1012.6 0.0
14/01:00pm 19.3 11.0 2.2 32 8.1 W 35 52 19 28 1014.0 1012.6 0.0
14/12:46pm 19.1 12.0 1.6 31 8.2 WNW 28 48 15 26 1014.1 1012.7 0.0
14/12:30pm 18.7 12.0 3.7 37 7.3 WNW 28 44 15 24 1014.3 1012.9 0.0
14/12:00pm 18.4 10.8 3.1 36 7.4 WNW 32 50 17 27 1014.6 1013.3 0.0
14/11:48am 18.7 11.9 3.3 36 7.5 WNW 28 46 15 25 1014.8 1013.4 0.0
14/11:30am 19.0 12.8 2.0 32 8.0 WNW 24 39 13 21 1015.1 1013.7 0.0
14/11:00am 20.2 13.0 3.0 32 8.4 WNW 30 48 16 26 1015.4 1014.0 0.0
14/10:56am 20.2 13.7 4.7 36 7.8 WNW 28 46 15 25 1015.5 1014.1 0.0
14/10:30am 17.7 10.3 3.9 40 6.7 WNW 32 43 17 23 1015.6 1014.2 0.0
14/10:00am 17.0 9.4 2.6 38 6.8 WNW 32 54 17 29 1015.7 1014.3 0.0
14/09:30am 15.8 9.0 2.9 42 6.1 WNW 28 46 15 25 1015.7 1014.3 0.0
14/09:25am 15.7 8.7 2.2 40 6.3 WNW 28 46 15 25 1015.6 1014.2 0.0
14/09:00am 16.3 9.5 3.0 41 6.3 WNW 28 44 15 24 1015.6 1014.2 0.0
14/08:30am 15.8 8.5 2.2 40 6.3 WNW 30 46 16 25 1015.7 1014.3 0.0
14/08:25am 15.3 8.3 2.1 41 6.1 WNW 28 46 15 25 1015.6 1014.2 0.0
14/08:00am 14.3 8.5 2.2 44 5.5 WNW 22 35 12 19 1015.7 1014.3 0.0
14/07:30am 14.1 8.7 2.4 45 5.4 NW 20 28 11 15 1015.6 1014.2 0.0
14/07:00am 13.2 6.1 1.2 44 5.3 WNW 28 37 15 20 1015.3 1013.9 0.0
14/06:30am 13.4 6.3 1.4 44 5.4 WNW 28 41 15 22 1015.0 1013.6 0.0
14/06:00am 13.6 9.0 1.6 44 5.4 WNW 15 28 8 15 1015.1 1013.7 0.0
14/05:30am 13.5 8.9 1.5 44 5.4 NW 15 20 8 11 1015.4 1014.0 0.0
14/05:00am 13.6 9.1 2.2 46 5.2 NW 15 26 8 14 1015.4 1014.0 0.0
14/04:30am 13.3 8.4 2.2 47 5.0 NW 17 28 9 15 1015.3 1013.9 0.0
14/04:00am 12.7 7.9 2.8 51 4.5 WNW 17 22 9 12 1015.4 1014.0 0.0
14/03:30am 12.7 9.4 2.3 49 4.7 WNW 9 15 5 8 1015.6 1014.2 0.0
14/03:00am 12.6 8.2 2.7 51 4.5 NW 15 20 8 11 1015.8 1014.4 0.0
14/02:30am 11.8 7.8 3.1 55 4.0 WNW 13 17 7 9 1016.0 1014.7 0.0
14/02:00am 10.7 6.1 3.5 61 3.3 NW 17 22 9 12 1016.5 1015.1 0.0
14/01:30am 10.3 7.2 3.8 64 3.0 NNW 9 11 5 6 1017.1 1015.7 0.0
14/01:00am 10.9 7.5 3.9 62 3.2 NNW 11 15 6 8 1017.3 1016.0 0.0
14/12:30am 10.7 7.6 5.5 70 2.5 N 11 15 6 8 1017.6 1016.3 0.0
14/12:00am 10.7 7.3 5.7 71 2.4 N 13 17 7 9 1017.9 1016.5 0.0

Other formats

Comma delimited format used in spreadsheet applications
http://www.bom.gov.au/fwo/IDN60801/IDN60801.94746.axf

JavaScript Object Notation format (JSON) in row-major order
http://www.bom.gov.au/fwo/IDN60801/IDN60801.94746.json

Data quality

Most of these data are generated automatically and are frequently updated. Quality checks on data are not normally performed. It is possible for incorrect values to appear. Refer to information at About Latest Weather Observations and please check the disclaimer before using these data.